Lyster, Canada
Current Conditions -  °F | °C
As of 1:00 AM on Tuesday 21 Oct 2014 (Local Time) from CYQB Reporting Station
Few Clouds Few Clouds  
Wind Chill: 30°   Ceiling: Unl
Heat Index: 34°   Visibility: 15mi
Dew Point: 30°   Wind: 5mph
Humidity: 87%   Direction: 240°WSW
Pressure: 29.98"   Gusts: NA
Location:  46.37°N, 71.62°W
Report Text: CYQB 210500Z 24004KT 15SM FEW130 01/M01 A2998 RMK AC1 SLP155
Loading
Personal Weather Stations






























Interactive Weather Map
Tropical Storm Tracking
New forecast layout! Learn more

10-Day Weather Forecast

Advertisements
Track Severe Weather on mobile